X  CloseMetar Aviation Weather Data     ENZV Stavanger , Sola

Temperature

5°C Temperature

3°C Dewpoint

87% Humidity



Wind

34 KM/H

21 MPH

 9 M/S

18 KTS



160°
South South
East
Current Conditions

Light Rain Light Rain
Pressure 1001.92 (hPa) - 29.59 (in)
Visibility 6.2 (mi) - 10 (km)
Airport
Airport-code ENZV

Location Stavanger , Sola 100 (km)

Metar:
ENZV 200150Z 16018KT 9999 -RA FEW006 BKN035 05/03 Q1002

Time: 20-02-2020 02:50